createdAt,value
2023-01-02T00:01:44.674Z,11.50
2023-01-02T00:06:46.965Z,11.50
2023-01-02T00:11:49.184Z,11.50
2023-01-02T00:16:52.596Z,11.40
2023-01-02T00:21:55.077Z,11.40
2023-01-02T00:26:57.260Z,11.40
2023-01-02T00:32:00.211Z,11.40
2023-01-02T00:37:02.432Z,11.50
2023-01-02T00:42:05.103Z,11.50
2023-01-02T00:47:07.342Z,11.60
2023-01-02T00:52:09.577Z,11.60
2023-01-02T00:57:11.821Z,11.60
2023-01-02T01:02:14.985Z,11.60
2023-01-02T01:07:17.365Z,11.70
2023-01-02T01:12:19.563Z,11.70
2023-01-02T01:17:21.865Z,11.60
2023-01-02T01:22:24.095Z,11.60
2023-01-02T01:27:26.391Z,11.60
2023-01-02T01:32:30.076Z,11.60
2023-01-02T01:37:32.281Z,11.60
2023-01-02T01:42:35.065Z,11.60
2023-01-02T01:47:56.883Z,11.60
2023-01-02T01:58:17.037Z,11.60
2023-01-02T02:03:24.175Z,11.60
2023-01-02T02:08:51.786Z,11.60
2023-01-02T02:13:59.079Z,11.60
2023-01-02T02:19:27.795Z,11.50
2023-01-02T02:29:51.736Z,11.60
2023-01-02T02:40:23.893Z,11.60
2023-01-02T02:45:40.591Z,11.50
2023-01-02T02:50:49.976Z,11.50
2023-01-02T02:55:58.361Z,11.40
2023-01-02T03:01:04.325Z,11.40
2023-01-02T03:06:34.973Z,11.40
2023-01-02T03:16:58.102Z,11.30
2023-01-02T03:27:14.041Z,11.20
2023-01-02T03:32:23.028Z,11.10
2023-01-02T03:37:30.562Z,11.10
2023-01-02T03:42:38.864Z,11.10
2023-01-02T03:52:56.108Z,11.00
2023-01-02T04:03:25.855Z,10.90
2023-01-02T04:08:34.609Z,10.80
2023-01-02T04:13:45.243Z,10.80
2023-01-02T04:18:54.567Z,10.80
2023-01-02T04:24:04.578Z,10.70
2023-01-02T04:29:07.034Z,10.80
2023-01-02T04:34:14.236Z,10.80
2023-01-02T04:39:18.743Z,10.80
2023-01-02T04:44:21.344Z,10.80
2023-01-02T04:49:23.588Z,10.80
2023-01-02T04:54:25.829Z,10.70
2023-01-02T04:59:28.072Z,10.70
2023-01-02T05:04:30.385Z,10.70
2023-01-02T05:09:32.690Z,10.60
2023-01-02T05:14:34.982Z,10.60
2023-01-02T05:19:37.252Z,10.50
2023-01-02T05:24:39.457Z,10.50
2023-01-02T05:29:41.710Z,10.40
2023-01-02T05:34:43.964Z,10.40
2023-01-02T05:39:46.232Z,10.40
2023-01-02T05:44:49.571Z,10.30
2023-01-02T05:49:51.865Z,10.30
2023-01-02T05:54:54.120Z,10.30
2023-01-02T05:59:56.392Z,10.30
2023-01-02T06:04:58.577Z,10.20
2023-01-02T06:10:00.766Z,10.20
2023-01-02T06:15:03.205Z,10.20
2023-01-02T06:20:06.273Z,10.30
2023-01-02T06:25:17.878Z,10.40
2023-01-02T06:30:20.131Z,10.50
2023-01-02T06:35:22.836Z,10.50
2023-01-02T06:40:25.215Z,10.60
2023-01-02T06:45:27.513Z,10.70
2023-01-02T06:50:34.813Z,10.80
2023-01-02T06:55:37.516Z,10.80
2023-01-02T07:00:39.831Z,10.90
2023-01-02T07:05:42.173Z,11.00
2023-01-02T07:10:49.371Z,11.10
2023-01-02T07:15:54.871Z,11.30
2023-01-02T07:20:57.081Z,11.40
2023-01-02T07:26:02.061Z,11.50
2023-01-02T07:31:06.757Z,11.60
2023-01-02T07:36:12.365Z,11.70
2023-01-02T07:41:18.051Z,12.00
2023-01-02T07:46:21.188Z,12.20
2023-01-02T07:51:27.237Z,12.50
2023-01-02T07:56:31.014Z,13.10
2023-01-02T08:01:33.375Z,16.00
2023-01-02T08:06:35.718Z,18.50
2023-01-02T08:11:38.017Z,20.60
2023-01-02T08:16:40.365Z,21.70
2023-01-02T08:21:42.595Z,22.50
2023-01-02T08:26:45.212Z,23.40
2023-01-02T08:31:47.697Z,24.20
2023-01-02T08:36:50.066Z,24.50
2023-01-02T08:41:52.480Z,24.90
2023-01-02T08:46:54.884Z,25.20
2023-01-02T08:51:57.239Z,25.20
2023-01-02T08:56:59.658Z,25.40
2023-01-02T09:02:02.076Z,25.70
2023-01-02T09:07:04.328Z,25.60
2023-01-02T09:12:06.620Z,24.60
2023-01-02T09:17:08.975Z,23.10
2023-01-02T09:23:10.813Z,21.80
2023-01-02T09:28:39.894Z,20.70
2023-01-02T09:33:43.553Z,19.60
2023-01-02T09:38:51.932Z,18.80
2023-01-02T09:49:16.919Z,18.10
2023-01-02T09:59:49.411Z,16.60
2023-01-02T10:15:51.587Z,15.70
2023-01-02T10:21:00.192Z,15.50
2023-01-02T10:26:07.247Z,15.50
2023-01-02T10:31:29.709Z,15.40
2023-01-02T10:36:36.136Z,15.30
2023-01-02T10:41:39.417Z,15.10
2023-01-02T10:46:42.199Z,15.00
2023-01-02T10:52:13.940Z,14.80
2023-01-02T10:57:20.863Z,14.80
2023-01-02T11:02:31.526Z,14.70
2023-01-02T11:07:37.503Z,14.60
2023-01-02T11:12:48.638Z,14.60
2023-01-02T11:17:51.068Z,14.50
2023-01-02T11:22:56.744Z,14.50
2023-01-02T11:28:00.845Z,14.70
2023-01-02T11:38:15.580Z,14.80
2023-01-02T11:43:38.734Z,14.60
2023-01-02T11:48:41.215Z,14.60
2023-01-02T11:53:47.602Z,14.50
2023-01-02T11:59:14.762Z,14.40
2023-01-02T12:04:17.296Z,14.40
2023-01-02T12:25:55.145Z,14.50
2023-01-02T12:47:33.489Z,14.50
2023-01-02T13:08:18.131Z,14.90
2023-01-02T13:13:26.749Z,14.80
2023-01-02T13:19:00.433Z,14.60
2023-01-02T13:24:03.728Z,14.30
2023-01-02T13:34:31.386Z,14.20
2023-01-02T13:44:54.579Z,13.80
2023-01-02T13:50:08.219Z,13.60
2023-01-02T14:11:21.144Z,13.40
2023-01-02T14:21:39.692Z,13.20
2023-01-02T14:26:42.409Z,12.70
2023-01-02T14:31:47.793Z,12.50
2023-01-02T14:36:52.447Z,12.40
2023-01-02T14:47:10.866Z,12.30
2023-01-02T14:52:17.572Z,12.10
2023-01-02T15:02:41.523Z,12.10
2023-01-02T15:07:48.929Z,11.80
2023-01-02T15:18:06.432Z,11.20
2023-01-02T15:23:21.092Z,11.40
2023-01-02T15:33:35.407Z,11.70
2023-01-02T15:38:37.782Z,11.90
2023-01-02T15:44:00.041Z,11.90
2023-01-02T15:49:04.153Z,11.90
2023-01-02T15:54:06.687Z,12.00
2023-01-02T15:59:30.538Z,12.10
2023-01-02T16:04:34.178Z,12.10
2023-01-02T16:09:36.444Z,12.10
2023-01-02T16:14:45.717Z,12.10
2023-01-02T16:19:58.522Z,12.10
2023-01-02T16:25:13.429Z,12.00
2023-01-02T16:35:37.087Z,12.10
2023-01-02T16:41:01.782Z,12.10
2023-01-02T16:46:08.805Z,11.90
2023-01-02T16:51:15.209Z,11.60
2023-01-02T16:56:17.475Z,11.50
2023-01-02T17:01:22.325Z,11.30
2023-01-02T17:06:24.679Z,11.20
2023-01-02T17:11:26.951Z,11.10
2023-01-02T17:16:29.968Z,11.20
2023-01-02T17:21:33.120Z,11.20
2023-01-02T17:26:35.569Z,11.10
2023-01-02T17:31:38.441Z,11.20
2023-01-02T17:36:40.894Z,11.10
2023-01-02T17:41:43.135Z,11.10
2023-01-02T17:47:15.784Z,11.10
2023-01-02T17:52:09.258Z,11.00
2023-01-02T17:57:11.974Z,10.80
2023-01-02T18:02:16.329Z,10.70
2023-01-02T18:07:18.665Z,10.60
2023-01-02T18:12:20.958Z,10.50
2023-01-02T18:17:30.106Z,10.50
2023-01-02T18:22:32.707Z,10.50
2023-01-02T18:27:35.596Z,10.50
2023-01-02T18:32:40.885Z,10.50
2023-01-02T18:37:43.884Z,10.40
2023-01-02T18:42:48.763Z,10.40
2023-01-02T18:47:57.618Z,10.40
2023-01-02T18:53:22.439Z,10.30
2023-01-02T19:03:36.320Z,10.20
2023-01-02T19:08:38.686Z,10.40
2023-01-02T19:13:40.917Z,10.40
2023-01-02T19:18:48.384Z,10.60
2023-01-02T19:39:34.745Z,10.80
2023-01-02T19:44:37.040Z,10.90
2023-01-02T19:49:40.418Z,10.90
2023-01-02T19:54:45.299Z,11.00
2023-01-02T19:59:50.479Z,11.00
2023-01-02T20:04:55.394Z,11.00
2023-01-02T20:09:57.926Z,10.90
2023-01-02T20:15:12.610Z,10.80
2023-01-02T20:20:18.183Z,10.80
2023-01-02T20:25:24.425Z,10.80
2023-01-02T20:30:26.863Z,10.80
2023-01-02T20:35:29.491Z,10.80
2023-01-02T20:40:31.659Z,10.80
2023-01-02T20:45:33.866Z,10.80
2023-01-02T20:50:36.207Z,10.80
2023-01-02T20:55:40.138Z,10.80
2023-01-02T21:00:42.663Z,10.80
2023-01-02T21:05:46.015Z,10.80
2023-01-02T21:10:48.382Z,10.80
2023-01-02T21:15:52.132Z,10.80
2023-01-02T21:20:57.919Z,10.80
2023-01-02T21:26:00.205Z,10.80
2023-01-02T21:31:02.984Z,10.70
2023-01-02T21:36:08.599Z,10.70
2023-01-02T21:41:31.502Z,10.60
2023-01-02T21:46:33.858Z,10.60
2023-01-02T21:51:37.033Z,10.60
2023-01-02T21:56:39.461Z,10.60
2023-01-02T22:02:07.471Z,10.50
2023-01-02T22:08:00.514Z,10.50
2023-01-02T22:13:02.868Z,10.40
2023-01-02T22:18:05.251Z,10.40
2023-01-02T22:23:07.544Z,10.40
2023-01-02T22:28:09.768Z,10.40
2023-01-02T22:33:12.334Z,10.40
2023-01-02T22:38:14.596Z,10.40
2023-01-02T22:43:24.213Z,10.40
2023-01-02T22:48:32.732Z,10.40
2023-01-02T22:53:37.227Z,10.40
2023-01-02T22:58:39.574Z,10.40
2023-01-02T23:03:43.483Z,10.40
2023-01-02T23:08:45.788Z,10.40
2023-01-02T23:13:54.560Z,10.40
2023-01-02T23:19:14.762Z,10.30
2023-01-02T23:24:21.016Z,10.30
2023-01-02T23:29:25.536Z,10.30
2023-01-02T23:34:29.384Z,10.20
2023-01-02T23:39:33.729Z,10.20
2023-01-02T23:44:38.405Z,10.20
2023-01-02T23:49:40.735Z,10.10
2023-01-02T23:54:42.936Z,10.10
2023-01-02T23:59:45.296Z,10.10
